createdAt,value
2023-05-01T00:00:32.315Z,22.57
2023-05-01T00:01:37.697Z,22.54
2023-05-01T00:02:43.200Z,22.54
2023-05-01T00:03:48.894Z,22.53
2023-05-01T00:04:55.183Z,22.54
2023-05-01T00:06:00.802Z,22.52
2023-05-01T00:07:06.324Z,22.52
2023-05-01T00:08:11.703Z,22.51
2023-05-01T00:09:17.106Z,22.51
2023-05-01T00:10:22.495Z,22.49
2023-05-01T00:11:27.890Z,22.47
2023-05-01T00:12:33.286Z,22.49
2023-05-01T00:13:38.664Z,22.48
2023-05-01T00:14:44.058Z,22.48
2023-05-01T00:15:49.530Z,22.51
2023-05-01T00:16:55.165Z,22.48
2023-05-01T00:18:01.093Z,22.46
2023-05-01T00:19:06.722Z,22.46
2023-05-01T00:20:12.070Z,22.46
2023-05-01T00:21:17.445Z,22.46
2023-05-01T00:22:22.813Z,22.46
2023-05-01T00:23:28.177Z,22.46
2023-05-01T00:24:33.589Z,22.46
2023-05-01T00:25:38.952Z,22.46
2023-05-01T00:26:44.296Z,22.46
2023-05-01T00:27:49.777Z,22.46
2023-05-01T00:28:55.189Z,22.44
2023-05-01T00:30:00.560Z,22.44
2023-05-01T00:31:05.916Z,22.43
2023-05-01T00:32:11.412Z,22.43
2023-05-01T00:33:17.111Z,22.45
2023-05-01T00:34:22.554Z,22.43
2023-05-01T00:35:28.002Z,22.41
2023-05-01T00:36:33.452Z,22.39
2023-05-01T00:37:38.823Z,22.4
2023-05-01T00:38:44.253Z,22.41
2023-05-01T00:39:49.705Z,22.4
2023-05-01T00:40:55.108Z,22.4
2023-05-01T00:42:00.516Z,22.37
2023-05-01T00:43:05.907Z,22.39
2023-05-01T00:44:11.299Z,22.41
2023-05-01T00:45:16.674Z,22.39
2023-05-01T00:46:22.122Z,22.39
2023-05-01T00:47:27.729Z,22.4
2023-05-01T00:48:33.288Z,22.39
2023-05-01T00:49:38.684Z,22.37
2023-05-01T00:50:44.131Z,22.35
2023-05-01T00:51:49.509Z,22.36
2023-05-01T00:52:54.886Z,22.35
2023-05-01T00:54:00.257Z,22.35
2023-05-01T00:55:05.656Z,22.36
2023-05-01T00:56:11.052Z,22.35
2023-05-01T00:57:16.409Z,22.34
2023-05-01T00:58:21.796Z,22.36
2023-05-01T00:59:27.200Z,22.38
2023-05-01T01:00:32.624Z,22.39
2023-05-01T01:01:38.116Z,22.38
2023-05-01T01:02:43.770Z,22.37
2023-05-01T01:03:49.242Z,22.37
2023-05-01T01:04:54.668Z,22.4
2023-05-01T01:06:00.393Z,22.38
2023-05-01T01:07:05.905Z,22.37
2023-05-01T01:08:11.291Z,22.36
2023-05-01T01:09:16.713Z,22.39
2023-05-01T01:10:22.076Z,22.36
2023-05-01T01:11:27.565Z,22.36
2023-05-01T01:12:33.047Z,22.35
2023-05-01T01:13:38.441Z,22.36
2023-05-01T01:14:43.826Z,22.35
2023-05-01T01:15:49.204Z,22.37
2023-05-01T01:16:54.653Z,22.35
2023-05-01T01:18:00.473Z,22.38
2023-05-01T01:19:05.933Z,22.34
2023-05-01T01:20:11.311Z,22.34
2023-05-01T01:21:16.717Z,22.33
2023-05-01T01:22:22.184Z,22.32
2023-05-01T01:23:27.669Z,22.32
2023-05-01T01:24:33.057Z,22.31
2023-05-01T01:25:38.426Z,22.32
2023-05-01T01:26:43.819Z,22.28
2023-05-01T01:27:49.203Z,22.25
2023-05-01T01:28:54.592Z,22.25
2023-05-01T01:29:59.951Z,22.27
2023-05-01T01:31:05.393Z,22.23
2023-05-01T01:32:10.983Z,22.28
2023-05-01T01:33:16.360Z,22.3
2023-05-01T01:34:21.720Z,22.33
2023-05-01T01:35:27.127Z,22.34
2023-05-01T01:36:32.530Z,22.29
2023-05-01T01:37:37.925Z,22.3
2023-05-01T01:38:43.285Z,22.29
2023-05-01T01:39:48.647Z,22.27
2023-05-01T01:40:54.033Z,22.26
2023-05-01T01:41:59.404Z,22.27
2023-05-01T01:43:04.806Z,22.25
2023-05-01T01:44:10.247Z,22.25
2023-05-01T01:45:15.693Z,22.26
2023-05-01T01:46:21.065Z,22.25
2023-05-01T01:47:26.672Z,22.25
2023-05-01T01:48:32.234Z,22.25
2023-05-01T01:49:37.621Z,22.23
2023-05-01T01:50:43.026Z,22.22
2023-05-01T01:51:48.442Z,22.23
2023-05-01T01:52:53.843Z,22.23
2023-05-01T01:53:59.224Z,22.21
2023-05-01T01:55:04.612Z,22.22
2023-05-01T01:56:09.975Z,22.22
2023-05-01T01:57:15.393Z,22.22
2023-05-01T01:58:20.757Z,22.21
2023-05-01T01:59:26.147Z,22.2
2023-05-01T02:00:31.512Z,22.19
2023-05-01T02:01:36.952Z,22.21
2023-05-01T02:02:42.532Z,22.21
2023-05-01T02:03:48.306Z,22.21
2023-05-01T02:04:53.953Z,22.21
2023-05-01T02:05:59.360Z,22.21
2023-05-01T02:07:04.937Z,22.22
2023-05-01T02:08:10.384Z,22.22
2023-05-01T02:09:15.786Z,22.2
2023-05-01T02:10:21.176Z,22.18
2023-05-01T02:11:26.572Z,22.18
2023-05-01T02:12:31.955Z,22.19
2023-05-01T02:13:37.505Z,22.19
2023-05-01T02:14:42.939Z,22.18
2023-05-01T02:15:48.401Z,22.18
2023-05-01T02:16:53.854Z,22.19
2023-05-01T02:17:59.323Z,22.18
2023-05-01T02:19:04.910Z,22.17
2023-05-01T02:20:10.297Z,22.16
2023-05-01T02:21:15.701Z,22.17
2023-05-01T02:22:21.106Z,22.15
2023-05-01T02:23:26.482Z,22.16
2023-05-01T02:24:31.845Z,22.15
2023-05-01T02:25:37.230Z,22.11
2023-05-01T02:26:42.628Z,22.08
2023-05-01T02:27:48.012Z,22.09
2023-05-01T02:28:53.399Z,22.07
2023-05-01T02:29:59.629Z,22.07
2023-05-01T02:31:05.046Z,22.07
2023-05-01T02:32:10.497Z,22.07
2023-05-01T02:33:15.879Z,22.04
2023-05-01T02:34:21.246Z,22.04
2023-05-01T02:35:26.651Z,22.04
2023-05-01T02:36:32.072Z,22.03
2023-05-01T02:37:37.466Z,22.03
2023-05-01T02:38:42.823Z,22.03
2023-05-01T02:39:48.161Z,22.03
2023-05-01T02:40:53.552Z,22.02
2023-05-01T02:41:58.945Z,22.02
2023-05-01T02:43:04.290Z,22.02
2023-05-01T02:44:09.669Z,22.02
2023-05-01T02:45:15.054Z,22.03
2023-05-01T02:46:20.519Z,22.01
2023-05-01T02:47:26.393Z,22.01
2023-05-01T02:48:32.034Z,22.01
2023-05-01T02:49:37.455Z,22.01
2023-05-01T02:50:42.864Z,22.02
2023-05-01T02:51:48.270Z,22.02
2023-05-01T02:52:53.708Z,22.04
2023-05-01T02:53:59.111Z,22.04
2023-05-01T02:55:04.523Z,22.03
2023-05-01T02:56:09.919Z,22.02
2023-05-01T02:57:15.324Z,22.01
2023-05-01T02:58:20.748Z,22.02
2023-05-01T02:59:26.260Z,22.02
2023-05-01T03:00:31.661Z,22
2023-05-01T03:01:37.114Z,22.01
2023-05-01T03:02:42.705Z,22
2023-05-01T03:03:48.203Z,22
2023-05-01T03:04:53.645Z,22
2023-05-01T03:05:59.106Z,22
2023-05-01T03:07:04.608Z,22
2023-05-01T03:08:09.998Z,21.99
2023-05-01T03:09:15.429Z,21.99
2023-05-01T03:10:20.833Z,22.02
2023-05-01T03:11:26.326Z,22
2023-05-01T03:12:31.737Z,22
2023-05-01T03:13:37.136Z,21.99
2023-05-01T03:14:42.639Z,21.99
2023-05-01T03:15:48.054Z,21.99
2023-05-01T03:16:53.529Z,22.03
2023-05-01T03:17:59.132Z,22.03
2023-05-01T03:19:04.815Z,22.05
2023-05-01T03:20:10.222Z,22.01
2023-05-01T03:21:15.642Z,22.01
2023-05-01T03:22:21.013Z,22
2023-05-01T03:23:26.394Z,21.99
2023-05-01T03:24:31.754Z,21.99
2023-05-01T03:25:37.128Z,21.99
2023-05-01T03:26:42.544Z,21.97
2023-05-01T03:27:47.938Z,21.97
2023-05-01T03:28:53.321Z,21.97
2023-05-01T03:29:58.743Z,21.96
2023-05-01T03:31:04.166Z,21.98
2023-05-01T03:32:09.571Z,21.96
2023-05-01T03:33:15.298Z,21.96
2023-05-01T03:34:20.683Z,21.97
2023-05-01T03:35:26.143Z,21.95
2023-05-01T03:36:31.893Z,21.95
2023-05-01T03:37:37.270Z,21.96
2023-05-01T03:38:42.633Z,21.95
2023-05-01T03:39:48.034Z,21.94
2023-05-01T03:40:53.426Z,21.94
2023-05-01T03:41:58.804Z,21.94
2023-05-01T03:43:04.221Z,21.94
2023-05-01T03:44:09.777Z,21.94
2023-05-01T03:45:15.159Z,21.94
2023-05-01T03:46:20.603Z,21.93
2023-05-01T03:47:26.216Z,21.93
2023-05-01T03:48:31.817Z,21.93
2023-05-01T03:49:37.223Z,21.93
2023-05-01T03:50:42.607Z,21.93
2023-05-01T03:51:47.976Z,21.93
2023-05-01T03:52:53.411Z,21.93
2023-05-01T03:53:58.872Z,21.97
2023-05-01T03:55:04.284Z,22
2023-05-01T03:56:09.650Z,22
2023-05-01T03:57:15.087Z,21.97
2023-05-01T03:58:20.466Z,21.96
2023-05-01T03:59:25.866Z,21.96
2023-05-01T04:00:31.262Z,21.94
2023-05-01T04:01:36.641Z,21.96
2023-05-01T04:02:42.220Z,21.97
2023-05-01T04:03:48.387Z,21.99
2023-05-01T04:04:54.023Z,21.98
2023-05-01T04:05:59.516Z,21.95
2023-05-01T04:07:05.016Z,22
2023-05-01T04:08:10.415Z,21.98
2023-05-01T04:09:15.788Z,21.97
2023-05-01T04:10:21.142Z,21.94
2023-05-01T04:11:26.563Z,22
2023-05-01T04:12:31.966Z,21.95
2023-05-01T04:13:37.351Z,21.97
2023-05-01T04:14:42.782Z,21.94
2023-05-01T04:15:48.214Z,21.95
2023-05-01T04:16:53.668Z,21.93
2023-05-01T04:17:59.080Z,21.92
2023-05-01T04:19:04.675Z,21.93
2023-05-01T04:20:10.048Z,21.92
2023-05-01T04:21:15.540Z,21.94
2023-05-01T04:22:20.935Z,21.92
2023-05-01T04:23:26.316Z,21.92
2023-05-01T04:24:31.757Z,21.93
2023-05-01T04:25:37.146Z,21.92
2023-05-01T04:26:42.557Z,21.95
2023-05-01T04:27:47.923Z,21.96
2023-05-01T04:28:53.462Z,21.93
2023-05-01T04:29:59.109Z,21.91
2023-05-01T04:31:05.006Z,21.9
2023-05-01T04:32:10.457Z,21.89
2023-05-01T04:33:15.829Z,21.88
2023-05-01T04:34:21.203Z,21.9
2023-05-01T04:35:26.699Z,21.93
2023-05-01T04:36:32.100Z,21.93
2023-05-01T04:37:37.556Z,21.94
2023-05-01T04:38:42.932Z,21.95
2023-05-01T04:39:48.300Z,21.94
2023-05-01T04:40:53.702Z,21.92
2023-05-01T04:41:59.078Z,21.92
2023-05-01T04:43:04.481Z,21.92
2023-05-01T04:44:09.877Z,21.93
2023-05-01T04:45:15.278Z,21.94
2023-05-01T04:46:20.754Z,21.98
2023-05-01T04:47:26.277Z,21.95
2023-05-01T04:48:31.690Z,21.97
2023-05-01T04:49:37.066Z,21.94
2023-05-01T04:50:42.435Z,21.92
2023-05-01T04:51:47.888Z,21.92
2023-05-01T04:52:53.279Z,21.97
2023-05-01T04:53:58.786Z,21.93
2023-05-01T04:55:04.211Z,21.96
2023-05-01T04:56:09.631Z,21.97
2023-05-01T04:57:15.031Z,21.92
2023-05-01T04:58:20.428Z,21.93
2023-05-01T04:59:25.814Z,21.9
2023-05-01T05:00:31.222Z,21.88
2023-05-01T05:01:36.652Z,21.88
2023-05-01T05:02:42.247Z,21.88
2023-05-01T05:03:49.924Z,21.88
2023-05-01T05:04:56.299Z,21.91
2023-05-01T05:06:01.714Z,21.89
2023-05-01T05:07:07.414Z,21.87
2023-05-01T05:08:12.885Z,21.88
2023-05-01T05:09:20.030Z,21.89
2023-05-01T05:10:25.611Z,21.88
2023-05-01T05:11:31.029Z,21.89
2023-05-01T05:12:36.501Z,21.91
2023-05-01T05:13:41.945Z,21.9
2023-05-01T05:14:47.332Z,21.88
2023-05-01T05:15:53.778Z,21.88
2023-05-01T05:16:59.494Z,21.9
2023-05-01T05:18:05.034Z,21.87
2023-05-01T05:19:10.692Z,21.87
2023-05-01T05:20:16.088Z,21.87
2023-05-01T05:21:21.582Z,21.86
2023-05-01T05:22:27.040Z,21.85
2023-05-01T05:23:32.484Z,21.83
2023-05-01T05:24:37.908Z,21.85
2023-05-01T05:25:43.336Z,21.88
2023-05-01T05:26:48.784Z,21.88
2023-05-01T05:27:54.197Z,21.87
2023-05-01T05:28:59.608Z,21.88
2023-05-01T05:30:05.073Z,21.91
2023-05-01T05:31:10.666Z,21.88
2023-05-01T05:32:16.083Z,21.86
2023-05-01T05:33:21.768Z,21.86
2023-05-01T05:34:27.159Z,21.86
2023-05-01T05:35:32.581Z,21.87
2023-05-01T05:36:37.962Z,21.88
2023-05-01T05:37:45.326Z,21.87
2023-05-01T05:38:51.559Z,21.89
2023-05-01T05:39:57.260Z,21.88
2023-05-01T05:41:02.871Z,21.88
2023-05-01T05:42:08.284Z,21.89
2023-05-01T05:43:13.636Z,21.88
2023-05-01T05:44:19.073Z,21.89
2023-05-01T05:45:24.440Z,21.89
2023-05-01T05:46:29.825Z,21.88
2023-05-01T05:47:35.485Z,21.88
2023-05-01T05:48:40.937Z,21.87
2023-05-01T05:49:46.325Z,21.85
2023-05-01T05:50:51.680Z,21.84
2023-05-01T05:51:57.054Z,21.84
2023-05-01T05:53:02.520Z,21.84
2023-05-01T05:54:07.895Z,21.84
2023-05-01T05:55:13.275Z,21.83
2023-05-01T05:56:18.628Z,21.84
2023-05-01T05:57:24.027Z,21.84
2023-05-01T05:58:29.399Z,21.84
2023-05-01T05:59:34.844Z,21.84
2023-05-01T06:00:40.253Z,21.84
2023-05-01T06:01:45.626Z,21.85
2023-05-01T06:02:51.012Z,21.86
2023-05-01T06:03:56.840Z,21.87
2023-05-01T06:05:02.303Z,21.88
2023-05-01T06:06:08.011Z,21.88
2023-05-01T06:07:13.916Z,21.87
2023-05-01T06:08:19.294Z,21.9
2023-05-01T06:09:24.750Z,21.88
2023-05-01T06:10:30.146Z,21.89
2023-05-01T06:11:35.614Z,21.89
2023-05-01T06:12:42.016Z,21.89
2023-05-01T06:14:12.924Z,21.91
2023-05-01T06:15:18.338Z,21.91
2023-05-01T06:16:23.750Z,21.92
2023-05-01T06:17:29.282Z,21.92
2023-05-01T06:18:34.832Z,21.92
2023-05-01T06:19:40.220Z,21.94
2023-05-01T06:20:45.642Z,21.93
2023-05-01T06:21:51.046Z,21.93
2023-05-01T06:22:56.415Z,21.95
2023-05-01T06:24:01.839Z,21.94
2023-05-01T06:25:07.218Z,21.96
2023-05-01T06:26:12.633Z,21.96
2023-05-01T06:27:18.012Z,21.95
2023-05-01T06:28:23.424Z,21.97
2023-05-01T06:29:28.803Z,21.98
2023-05-01T06:30:34.193Z,21.98
2023-05-01T06:31:39.602Z,21.98
2023-05-01T06:32:45.181Z,21.99
2023-05-01T06:33:50.773Z,21.97
2023-05-01T06:34:56.169Z,21.97
2023-05-01T06:36:01.634Z,21.97
2023-05-01T06:37:07.075Z,21.98
2023-05-01T06:38:12.469Z,21.99
2023-05-01T06:39:17.873Z,22
2023-05-01T06:40:23.359Z,21.99
2023-05-01T06:41:28.758Z,22
2023-05-01T06:42:34.275Z,22
2023-05-01T06:43:39.739Z,22
2023-05-01T06:44:45.118Z,22.01
2023-05-01T06:45:50.487Z,22.01
2023-05-01T06:46:55.893Z,22.01
2023-05-01T06:48:01.529Z,22.02
2023-05-01T06:49:07.085Z,22.02
2023-05-01T06:50:12.468Z,22.01
2023-05-01T06:51:18.103Z,22.01
2023-05-01T06:52:23.553Z,22.02
2023-05-01T06:53:28.978Z,22.08
2023-05-01T06:54:34.345Z,22.1
2023-05-01T06:55:39.763Z,22.13
2023-05-01T06:56:45.112Z,22.15
2023-05-01T06:57:50.505Z,22.16
2023-05-01T06:58:55.894Z,22.17
2023-05-01T07:00:01.315Z,22.13
2023-05-01T07:01:06.796Z,22.08
2023-05-01T07:02:12.481Z,22.04
2023-05-01T07:03:18.128Z,21.99
2023-05-01T07:04:23.816Z,21.93
2023-05-01T07:05:29.193Z,21.87
2023-05-01T07:06:34.623Z,21.82
2023-05-01T07:07:42.460Z,21.8
2023-05-01T07:09:04.467Z,21.75
2023-05-01T07:10:09.878Z,21.72
2023-05-01T07:11:15.321Z,21.66
2023-05-01T07:12:20.790Z,21.64
2023-05-01T07:13:26.196Z,21.6
2023-05-01T07:14:31.571Z,21.57
2023-05-01T07:15:36.958Z,21.58
2023-05-01T07:16:42.447Z,21.56
2023-05-01T07:17:48.128Z,21.54
2023-05-01T07:18:53.584Z,21.51
2023-05-01T07:19:59.147Z,21.51
2023-05-01T07:21:04.606Z,21.48
2023-05-01T07:22:10.020Z,21.44
2023-05-01T07:23:15.384Z,21.47
2023-05-01T07:24:20.786Z,21.45
2023-05-01T07:25:26.208Z,21.42
2023-05-01T07:26:31.605Z,21.41
2023-05-01T07:27:36.998Z,21.39
2023-05-01T07:28:42.368Z,21.4
2023-05-01T07:29:47.770Z,21.38
2023-05-01T07:30:53.175Z,21.42
2023-05-01T07:31:58.687Z,21.5
2023-05-01T07:33:04.464Z,21.49
2023-05-01T07:34:10.113Z,21.47
2023-05-01T07:35:15.526Z,21.45
2023-05-01T07:36:20.980Z,21.43
2023-05-01T07:37:26.393Z,21.4
2023-05-01T07:38:31.821Z,21.4
2023-05-01T07:39:37.221Z,21.35
2023-05-01T07:40:42.657Z,21.34
2023-05-01T07:41:48.047Z,21.32
2023-05-01T07:42:54.639Z,21.33
2023-05-01T07:44:00.209Z,21.31
2023-05-01T07:45:05.592Z,21.32
2023-05-01T07:47:16.632Z,21.3
2023-05-01T07:48:22.006Z,21.3
2023-05-01T07:49:27.460Z,21.28
2023-05-01T07:50:32.896Z,21.28
2023-05-01T07:51:38.285Z,21.27
2023-05-01T07:52:43.689Z,21.25
2023-05-01T07:53:49.108Z,21.24
2023-05-01T07:54:54.636Z,21.24
2023-05-01T07:56:00.030Z,21.23
2023-05-01T07:57:05.420Z,21.23
2023-05-01T07:58:10.828Z,21.21
2023-05-01T07:59:16.229Z,21.2
2023-05-01T08:00:21.655Z,21.21
2023-05-01T08:01:27.119Z,21.18
2023-05-01T08:02:32.642Z,21.16
2023-05-01T08:03:38.484Z,21.15
2023-05-01T08:04:44.273Z,21.15
2023-05-01T08:05:49.976Z,21.13
2023-05-01T08:06:55.555Z,21.15
2023-05-01T08:08:01.436Z,21.16
2023-05-01T08:09:06.890Z,21.15
2023-05-01T08:10:12.306Z,21.13
2023-05-01T08:11:17.699Z,21.13
2023-05-01T08:12:23.090Z,21.11
2023-05-01T08:13:28.470Z,21.11
2023-05-01T08:14:33.876Z,21.12
2023-05-01T08:15:39.333Z,21.11
2023-05-01T08:16:44.853Z,21.1
2023-05-01T08:17:50.716Z,21.09
2023-05-01T08:18:56.472Z,21.1
2023-05-01T08:20:01.905Z,21.09
2023-05-01T08:21:07.296Z,21.11
2023-05-01T08:22:12.694Z,21.08
2023-05-01T08:23:18.099Z,21.06
2023-05-01T08:24:23.498Z,21.08
2023-05-01T08:25:28.895Z,21.07
2023-05-01T08:26:34.304Z,21.1
2023-05-01T08:27:39.716Z,21.12
2023-05-01T08:28:45.120Z,21.15
2023-05-01T08:29:50.614Z,21.13
2023-05-01T08:30:56.079Z,21.11
2023-05-01T08:32:01.661Z,21.08
2023-05-01T08:33:07.095Z,21.08
2023-05-01T08:34:12.706Z,21.08
2023-05-01T08:35:18.094Z,21.06
2023-05-01T08:36:23.453Z,21.06
2023-05-01T08:37:28.846Z,21.03
2023-05-01T08:38:34.234Z,21.03
2023-05-01T08:39:39.630Z,21.02
2023-05-01T08:40:45.054Z,21.03
2023-05-01T08:41:50.436Z,21.06
2023-05-01T08:42:55.835Z,21.03
2023-05-01T08:44:01.260Z,21.04
2023-05-01T08:45:06.634Z,21.01
2023-05-01T08:46:12.183Z,21.02
2023-05-01T08:47:17.820Z,21.01
2023-05-01T08:48:23.346Z,21
2023-05-01T08:49:29.028Z,21.01
2023-05-01T08:50:34.451Z,21
2023-05-01T08:51:39.838Z,21.01
2023-05-01T08:52:45.236Z,21.02
2023-05-01T08:53:50.727Z,21.01
2023-05-01T08:54:56.157Z,21.05
2023-05-01T08:56:01.535Z,21.01
2023-05-01T08:57:08.957Z,21.03
2023-05-01T08:58:15.626Z,21.03
2023-05-01T08:59:21.004Z,21.03
2023-05-01T09:00:26.373Z,21.02
2023-05-01T09:01:31.817Z,21.01
2023-05-01T09:02:37.477Z,21.01
2023-05-01T09:03:43.030Z,21
2023-05-01T09:04:48.586Z,21.01
2023-05-01T09:05:53.968Z,21.01
2023-05-01T09:06:59.467Z,21.01
2023-05-01T09:08:04.876Z,20.99
2023-05-01T09:09:10.321Z,20.99
2023-05-01T09:10:15.765Z,20.97
2023-05-01T09:11:21.219Z,20.97
2023-05-01T09:12:26.618Z,21
2023-05-01T09:13:32.012Z,20.99
2023-05-01T09:14:37.422Z,20.99
2023-05-01T09:15:42.844Z,21
2023-05-01T09:16:48.550Z,21
2023-05-01T09:17:54.301Z,21
2023-05-01T09:18:59.924Z,21.02
2023-05-01T09:20:05.309Z,21
2023-05-01T09:21:10.718Z,21.03
2023-05-01T09:22:16.133Z,21.01
2023-05-01T09:23:21.519Z,21
2023-05-01T09:24:26.906Z,20.98
2023-05-01T09:25:32.290Z,20.99
2023-05-01T09:26:37.788Z,20.98
2023-05-01T09:27:43.181Z,21
2023-05-01T09:28:48.598Z,20.98
2023-05-01T09:29:54.057Z,20.98
2023-05-01T09:31:00.063Z,20.97
2023-05-01T09:32:05.473Z,21
2023-05-01T09:33:11.272Z,21
2023-05-01T09:34:17.060Z,21
2023-05-01T09:35:22.429Z,20.99
2023-05-01T09:36:27.890Z,21.02
2023-05-01T09:37:33.269Z,21.01
2023-05-01T09:38:38.642Z,21
2023-05-01T09:39:44.029Z,20.97
2023-05-01T09:40:49.434Z,21.03
2023-05-01T09:41:54.866Z,21.07
2023-05-01T09:43:00.235Z,21.11
2023-05-01T09:44:05.607Z,21.11
2023-05-01T09:45:11.010Z,21.1
2023-05-01T09:46:16.432Z,21.11
2023-05-01T09:47:22.038Z,21.12
2023-05-01T09:48:27.511Z,21.14
2023-05-01T09:49:35.338Z,21.14
2023-05-01T09:50:40.705Z,21.15
2023-05-01T09:51:46.136Z,21.14
2023-05-01T09:52:51.610Z,21.14
2023-05-01T09:53:57.051Z,21.15
2023-05-01T09:55:02.425Z,21.18
2023-05-01T09:56:07.819Z,21.18
2023-05-01T09:57:13.245Z,21.19
2023-05-01T09:58:18.645Z,21.21
2023-05-01T09:59:24.042Z,21.23
2023-05-01T10:00:29.473Z,21.22
2023-05-01T10:01:34.934Z,21.23
2023-05-01T10:02:40.578Z,21.24
2023-05-01T10:03:46.384Z,21.25
2023-05-01T10:04:52.250Z,21.27
2023-05-01T10:05:57.649Z,21.26
2023-05-01T10:07:03.251Z,21.27
2023-05-01T10:08:08.860Z,21.26
2023-05-01T10:09:14.297Z,21.28
2023-05-01T10:10:20.256Z,21.28
2023-05-01T10:11:25.695Z,21.3
2023-05-01T10:12:31.400Z,21.29
2023-05-01T10:13:36.783Z,21.31
2023-05-01T10:14:42.159Z,21.31
2023-05-01T10:15:47.536Z,21.32
2023-05-01T10:16:53.259Z,21.31
2023-05-01T10:17:59.077Z,21.29
2023-05-01T10:19:04.736Z,21.3
2023-05-01T10:20:10.171Z,21.32
2023-05-01T10:21:15.537Z,21.32
2023-05-01T10:22:20.946Z,21.33
2023-05-01T10:23:26.339Z,21.32
2023-05-01T10:24:31.779Z,21.33
2023-05-01T10:25:37.285Z,21.32
2023-05-01T10:26:42.719Z,21.32
2023-05-01T10:27:48.153Z,21.33
2023-05-01T10:28:53.537Z,21.33
2023-05-01T10:29:59.081Z,21.32
2023-05-01T10:31:04.795Z,21.33
2023-05-01T10:32:10.399Z,21.33
2023-05-01T10:33:15.945Z,21.34
2023-05-01T10:34:21.422Z,21.35
2023-05-01T10:35:28.877Z,21.34
2023-05-01T10:36:34.310Z,21.33
2023-05-01T10:37:39.735Z,21.34
2023-05-01T10:38:45.156Z,21.35
2023-05-01T10:39:50.602Z,21.33
2023-05-01T10:40:56.039Z,21.34
2023-05-01T10:42:01.471Z,21.34
2023-05-01T10:43:07.236Z,21.36
2023-05-01T10:44:12.618Z,21.34
2023-05-01T10:45:18.035Z,21.35
2023-05-01T10:46:23.451Z,21.33
2023-05-01T10:47:29.037Z,21.32
2023-05-01T10:48:34.618Z,21.34
2023-05-01T10:49:39.988Z,21.28
2023-05-01T10:50:45.464Z,21.3
2023-05-01T10:51:50.850Z,21.29
2023-05-01T10:52:56.275Z,21.32
2023-05-01T10:54:01.670Z,21.29
2023-05-01T10:55:07.046Z,21.31
2023-05-01T10:56:12.442Z,21.28
2023-05-01T10:57:17.822Z,21.26
2023-05-01T10:58:23.209Z,21.23
2023-05-01T10:59:28.584Z,21.22
2023-05-01T11:00:33.967Z,21.22
2023-05-01T11:01:39.404Z,21.22
2023-05-01T11:02:45.199Z,21.21
2023-05-01T11:03:50.739Z,21.19
2023-05-01T11:04:56.541Z,21.21
2023-05-01T11:06:03.152Z,21.21
2023-05-01T11:07:09.200Z,21.19
2023-05-01T11:08:15.137Z,21.19
2023-05-01T11:09:20.561Z,21.2
2023-05-01T11:10:25.998Z,21.19
2023-05-01T11:11:31.411Z,21.18
2023-05-01T11:12:36.784Z,21.16
2023-05-01T11:13:42.165Z,21.17
2023-05-01T11:14:47.561Z,21.17
2023-05-01T11:15:52.976Z,21.15
2023-05-01T11:16:58.484Z,21.15
2023-05-01T11:18:04.013Z,21.16
2023-05-01T11:19:09.759Z,21.17
2023-05-01T11:20:15.168Z,21.18
2023-05-01T11:21:20.620Z,21.19
2023-05-01T11:22:25.992Z,21.21
2023-05-01T11:23:31.375Z,21.24
2023-05-01T11:24:36.740Z,21.23
2023-05-01T11:25:42.202Z,21.2
2023-05-01T11:26:47.584Z,21.22
2023-05-01T11:27:53.026Z,21.22
2023-05-01T11:28:58.449Z,21.21
2023-05-01T11:30:03.900Z,21.19
2023-05-01T11:31:09.295Z,21.22
2023-05-01T11:32:14.852Z,21.22
2023-05-01T11:33:20.585Z,21.23
2023-05-01T11:34:26.269Z,21.24
2023-05-01T11:35:31.889Z,21.26
2023-05-01T11:36:37.275Z,21.28
2023-05-01T11:37:42.668Z,21.27
2023-05-01T11:38:48.052Z,21.29
2023-05-01T11:39:53.427Z,21.28
2023-05-01T11:41:02.002Z,21.26
2023-05-01T11:42:07.409Z,21.25
2023-05-01T11:43:13.199Z,21.28
2023-05-01T11:44:18.593Z,21.3
2023-05-01T11:45:23.978Z,21.31
2023-05-01T11:46:29.403Z,21.28
2023-05-01T11:47:35.042Z,21.25
2023-05-01T11:48:40.636Z,21.24
2023-05-01T11:49:46.023Z,21.25
2023-05-01T11:50:51.424Z,21.27
2023-05-01T11:51:56.818Z,21.27
2023-05-01T11:53:02.261Z,21.28
2023-05-01T11:54:07.798Z,21.28
2023-05-01T11:55:13.213Z,21.29
2023-05-01T11:57:30.966Z,21.31
2023-05-01T11:58:36.635Z,21.33
2023-05-01T11:59:42.115Z,21.31
2023-05-01T12:00:47.466Z,21.32
2023-05-01T12:01:52.854Z,21.3
2023-05-01T12:02:58.476Z,21.3
2023-05-01T12:04:04.428Z,21.3
2023-05-01T12:05:10.087Z,21.32
2023-05-01T12:06:15.532Z,21.3
2023-05-01T12:07:21.078Z,21.3
2023-05-01T12:08:26.478Z,21.33
2023-05-01T12:09:31.921Z,21.34
2023-05-01T12:10:37.289Z,21.34
2023-05-01T12:11:42.688Z,21.36
2023-05-01T12:12:48.094Z,21.34
2023-05-01T12:13:53.471Z,21.33
2023-05-01T12:14:59.186Z,21.33
2023-05-01T12:16:04.969Z,21.32
2023-05-01T12:17:10.395Z,21.31
2023-05-01T12:18:15.990Z,21.3
2023-05-01T12:19:21.862Z,21.36
2023-05-01T12:20:28.150Z,21.34
2023-05-01T12:21:33.564Z,21.32
2023-05-01T12:22:39.011Z,21.32
2023-05-01T12:23:44.397Z,21.3
2023-05-01T12:24:49.775Z,21.28
2023-05-01T12:25:55.154Z,21.31
2023-05-01T12:27:00.540Z,21.32
2023-05-01T12:28:05.938Z,21.32
2023-05-01T12:29:11.345Z,21.3
2023-05-01T12:30:16.822Z,21.32
2023-05-01T12:31:22.231Z,21.31
2023-05-01T12:32:27.660Z,21.34
2023-05-01T12:33:33.189Z,21.37
2023-05-01T12:34:38.627Z,21.4
2023-05-01T12:35:44.028Z,21.43
2023-05-01T12:36:49.793Z,21.47
2023-05-01T12:37:55.189Z,21.48
2023-05-01T12:39:00.626Z,21.48
2023-05-01T12:40:06.077Z,21.48
2023-05-01T12:41:11.512Z,21.48
2023-05-01T12:42:16.929Z,21.49
2023-05-01T12:43:22.315Z,21.5
2023-05-01T12:44:27.784Z,21.51
2023-05-01T12:45:33.244Z,21.52
2023-05-01T12:46:38.640Z,21.52
2023-05-01T12:47:44.166Z,21.52
2023-05-01T12:48:49.931Z,21.52
2023-05-01T12:49:58.697Z,21.54
2023-05-01T12:51:04.554Z,21.55
2023-05-01T12:52:09.946Z,21.55
2023-05-01T12:53:15.356Z,21.55
2023-05-01T12:54:21.004Z,21.56
2023-05-01T12:55:26.431Z,21.58
2023-05-01T12:56:31.809Z,21.59
2023-05-01T12:57:37.172Z,21.6
2023-05-01T12:58:42.572Z,21.59
2023-05-01T12:59:47.946Z,21.61
2023-05-01T13:00:53.336Z,21.59
2023-05-01T13:01:58.837Z,21.6
2023-05-01T13:03:04.664Z,21.59
2023-05-01T13:04:10.597Z,21.61
2023-05-01T13:05:16.094Z,21.63
2023-05-01T13:06:21.517Z,21.64
2023-05-01T13:07:27.026Z,21.64
2023-05-01T13:08:32.471Z,21.65
2023-05-01T13:09:38.017Z,21.63
2023-05-01T13:10:43.417Z,21.59
2023-05-01T13:11:48.794Z,21.57
2023-05-01T13:12:54.170Z,21.55
2023-05-01T13:13:59.597Z,21.53
2023-05-01T13:15:04.970Z,21.52
2023-05-01T13:16:10.583Z,21.5
2023-05-01T13:17:16.188Z,21.51
2023-05-01T13:18:21.591Z,21.51
2023-05-01T13:19:26.977Z,21.52
2023-05-01T13:20:32.461Z,21.53
2023-05-01T13:21:38.004Z,21.57
2023-05-01T13:22:43.369Z,21.58
2023-05-01T13:23:48.822Z,21.59
2023-05-01T13:24:54.234Z,21.6
2023-05-01T13:25:59.647Z,21.6
2023-05-01T13:27:05.385Z,21.62
2023-05-01T13:28:10.824Z,21.62
2023-05-01T13:29:16.258Z,21.63
2023-05-01T13:30:21.644Z,21.65
2023-05-01T13:31:27.158Z,21.66
2023-05-01T13:32:32.778Z,21.66
2023-05-01T13:33:38.248Z,21.67
2023-05-01T13:34:43.679Z,21.66
2023-05-01T13:35:49.104Z,21.67
2023-05-01T13:36:54.493Z,21.67
2023-05-01T13:37:59.859Z,21.67
2023-05-01T13:39:05.282Z,21.68
2023-05-01T13:40:10.693Z,21.68
2023-05-01T13:41:16.104Z,21.67
2023-05-01T13:42:21.513Z,21.69
2023-05-01T13:43:26.895Z,21.69
2023-05-01T13:44:32.333Z,21.69
2023-05-01T13:45:37.885Z,21.69
2023-05-01T13:46:43.418Z,21.7
2023-05-01T13:47:48.860Z,21.71
2023-05-01T13:48:54.417Z,21.72
2023-05-01T13:49:59.933Z,21.72
2023-05-01T13:51:06.116Z,21.73
2023-05-01T13:52:11.585Z,21.74
2023-05-01T13:53:17.009Z,21.75
2023-05-01T13:54:22.371Z,21.76
2023-05-01T13:55:27.778Z,21.75
2023-05-01T13:56:33.169Z,21.76
2023-05-01T13:57:38.642Z,21.75
2023-05-01T13:58:44.018Z,21.76
2023-05-01T13:59:49.417Z,21.76
2023-05-01T14:00:54.820Z,21.77
2023-05-01T14:02:00.316Z,21.77
2023-05-01T14:03:05.757Z,21.77
2023-05-01T14:04:11.348Z,21.75
2023-05-01T14:05:16.790Z,21.76
2023-05-01T14:06:22.229Z,21.76
2023-05-01T14:07:27.848Z,21.75
2023-05-01T14:08:33.196Z,21.74
2023-05-01T14:09:38.560Z,21.76
2023-05-01T14:10:44.005Z,21.77
2023-05-01T14:11:49.388Z,21.76